sensor_id;sensor_type;location;lat;lon;timestamp;P1;durP1;ratioP1;P2;durP2;ratioP2
12222;SDS011;6174;49.058;8.524;2023-11-21T06:01:15;3.27;;;2.43;;
12222;SDS011;6174;49.058;8.524;2023-11-21T06:03:42;3.60;;;2.37;;
12222;SDS011;6174;49.058;8.524;2023-11-21T06:06:08;4.10;;;2.30;;
12222;SDS011;6174;49.058;8.524;2023-11-21T06:08:35;2.43;;;2.23;;
12222;SDS011;6174;49.058;8.524;2023-11-21T06:11:02;3.23;;;2.40;;
12222;SDS011;6174;49.058;8.524;2023-11-21T06:13:29;3.47;;;2.20;;
12222;SDS011;6174;49.058;8.524;2023-11-21T06:15:56;2.67;;;2.10;;
12222;SDS011;6174;49.058;8.524;2023-11-21T06:18:24;3.87;;;2.33;;
12222;SDS011;6174;49.058;8.524;2023-11-21T06:20:50;3.07;;;2.20;;
12222;SDS011;6174;49.058;8.524;2023-11-21T06:23:18;3.70;;;2.40;;
12222;SDS011;6174;49.058;8.524;2023-11-21T06:25:47;4.93;;;2.47;;
12222;SDS011;6174;49.058;8.524;2023-11-21T06:28:14;3.37;;;2.57;;
12222;SDS011;6174;49.058;8.524;2023-11-21T06:30:42;2.93;;;2.20;;
12222;SDS011;6174;49.058;8.524;2023-11-21T06:33:09;2.90;;;2.50;;
12222;SDS011;6174;49.058;8.524;2023-11-21T06:35:37;3.33;;;2.40;;
12222;SDS011;6174;49.058;8.524;2023-11-21T06:38:05;4.00;;;2.80;;
12222;SDS011;6174;49.058;8.524;2023-11-21T06:40:31;2.73;;;2.53;;
12222;SDS011;6174;49.058;8.524;2023-11-21T06:42:59;3.23;;;2.47;;
12222;SDS011;6174;49.058;8.524;2023-11-21T06:45:26;4.10;;;3.00;;
12222;SDS011;6174;49.058;8.524;2023-11-21T06:47:53;4.40;;;2.40;;
12222;SDS011;6174;49.058;8.524;2023-11-21T06:50:19;2.83;;;2.60;;
12222;SDS011;6174;49.058;8.524;2023-11-21T06:52:47;3.17;;;2.50;;
12222;SDS011;6174;49.058;8.524;2023-11-21T06:55:14;2.83;;;2.50;;
12222;SDS011;6174;49.058;8.524;2023-11-21T06:57:41;2.80;;;2.40;;
12222;SDS011;6174;49.058;8.524;2023-11-21T07:00:10;3.30;;;3.00;;
12222;SDS011;6174;49.058;8.524;2023-11-21T07:02:37;3.10;;;2.80;;
12222;SDS011;6174;49.058;8.524;2023-11-21T07:05:04;3.33;;;3.03;;
12222;SDS011;6174;49.058;8.524;2023-11-21T07:07:32;3.87;;;3.37;;
12222;SDS011;6174;49.058;8.524;2023-11-21T07:10:02;4.40;;;3.30;;
12222;SDS011;6174;49.058;8.524;2023-11-21T07:12:30;3.30;;;3.00;;
12222;SDS011;6174;49.058;8.524;2023-11-21T07:14:57;3.07;;;2.73;;
12222;SDS011;6174;49.058;8.524;2023-11-21T07:17:24;3.10;;;2.90;;
12222;SDS011;6174;49.058;8.524;2023-11-21T07:19:50;3.40;;;3.10;;
12222;SDS011;6174;49.058;8.524;2023-11-21T07:22:16;3.60;;;3.00;;
12222;SDS011;6174;49.058;8.524;2023-11-21T07:24:47;2.90;;;2.70;;
12222;SDS011;6174;49.058;8.524;2023-11-21T07:27:16;3.13;;;2.83;;
12222;SDS011;6174;49.058;8.524;2023-11-21T07:29:43;3.20;;;3.00;;
12222;SDS011;6174;49.058;8.524;2023-11-21T07:32:10;3.13;;;2.93;;
12222;SDS011;6174;49.058;8.524;2023-11-21T07:34:38;3.17;;;2.97;;
12222;SDS011;6174;49.058;8.524;2023-11-21T07:37:05;3.40;;;3.10;;
12222;SDS011;6174;49.058;8.524;2023-11-21T07:39:31;4.03;;;3.23;;
12222;SDS011;6174;49.058;8.524;2023-11-21T07:41:58;4.17;;;3.40;;
12222;SDS011;6174;49.058;8.524;2023-11-21T07:44:26;4.13;;;3.20;;
12222;SDS011;6174;49.058;8.524;2023-11-21T07:46:53;3.83;;;3.33;;
12222;SDS011;6174;49.058;8.524;2023-11-21T07:49:22;3.80;;;3.50;;
12222;SDS011;6174;49.058;8.524;2023-11-21T07:51:49;3.97;;;3.30;;
12222;SDS011;6174;49.058;8.524;2023-11-21T07:54:16;3.87;;;3.43;;
12222;SDS011;6174;49.058;8.524;2023-11-21T07:56:46;3.77;;;3.47;;
12222;SDS011;6174;49.058;8.524;2023-11-21T07:59:13;3.63;;;3.33;;
12222;SDS011;6174;49.058;8.524;2023-11-21T08:01:41;5.57;;;3.77;;
12222;SDS011;6174;49.058;8.524;2023-11-21T08:04:08;4.03;;;3.73;;
12222;SDS011;6174;49.058;8.524;2023-11-21T08:06:34;3.90;;;3.57;;
12222;SDS011;6174;49.058;8.524;2023-11-21T08:09:00;4.33;;;3.67;;
12222;SDS011;6174;49.058;8.524;2023-11-21T08:11:27;3.93;;;3.57;;
12222;SDS011;6174;49.058;8.524;2023-11-21T08:13:56;3.90;;;3.60;;
12222;SDS011;6174;49.058;8.524;2023-11-21T08:16:24;5.83;;;3.70;;
12222;SDS011;6174;49.058;8.524;2023-11-21T08:18:52;5.97;;;3.80;;
12222;SDS011;6174;49.058;8.524;2023-11-21T08:21:19;5.83;;;3.70;;
12222;SDS011;6174;49.058;8.524;2023-11-21T08:23:46;4.50;;;4.10;;
12222;SDS011;6174;49.058;8.524;2023-11-21T08:26:18;3.93;;;3.50;;
12222;SDS011;6174;49.058;8.524;2023-11-21T08:28:48;4.03;;;3.70;;
12222;SDS011;6174;49.058;8.524;2023-11-21T08:31:17;5.17;;;3.93;;
12222;SDS011;6174;49.058;8.524;2023-11-21T08:33:49;4.40;;;4.00;;
12222;SDS011;6174;49.058;8.524;2023-11-21T08:36:17;4.87;;;4.20;;
12222;SDS011;6174;49.058;8.524;2023-11-21T08:38:44;4.63;;;4.33;;
12222;SDS011;6174;49.058;8.524;2023-11-21T08:41:11;4.63;;;4.27;;
12222;SDS011;6174;49.058;8.524;2023-11-21T08:43:39;5.10;;;4.70;;
12222;SDS011;6174;49.058;8.524;2023-11-21T08:46:07;6.10;;;5.50;;
12222;SDS011;6174;49.058;8.524;2023-11-21T08:48:35;5.53;;;5.03;;
12222;SDS011;6174;49.058;8.524;2023-11-21T08:51:02;5.67;;;5.17;;
12222;SDS011;6174;49.058;8.524;2023-11-21T08:53:31;5.17;;;4.77;;
12222;SDS011;6174;49.058;8.524;2023-11-21T08:55:58;6.10;;;5.50;;
12222;SDS011;6174;49.058;8.524;2023-11-21T08:58:25;6.40;;;5.80;;
12222;SDS011;6174;49.058;8.524;2023-11-21T09:00:52;7.00;;;6.40;;
12222;SDS011;6174;49.058;8.524;2023-11-21T09:03:19;7.93;;;7.23;;
12222;SDS011;6174;49.058;8.524;2023-11-21T09:05:45;8.10;;;7.30;;
12222;SDS011;6174;49.058;8.524;2023-11-21T09:08:15;8.10;;;7.40;;
12222;SDS011;6174;49.058;8.524;2023-11-21T09:10:43;7.97;;;7.27;;
12222;SDS011;6174;49.058;8.524;2023-11-21T09:13:14;8.80;;;8.00;;
12222;SDS011;6174;49.058;8.524;2023-11-21T09:15:41;8.47;;;7.67;;
12222;SDS011;6174;49.058;8.524;2023-11-21T09:18:11;9.43;;;8.63;;
12222;SDS011;6174;49.058;8.524;2023-11-21T09:20:38;10.67;;;9.67;;
12222;SDS011;6174;49.058;8.524;2023-11-21T09:23:05;11.20;;;9.63;;
12222;SDS011;6174;49.058;8.524;2023-11-21T09:25:32;10.40;;;9.50;;
12222;SDS011;6174;49.058;8.524;2023-11-21T09:28:03;11.10;;;10.00;;
12222;SDS011;6174;49.058;8.524;2023-11-21T09:30:33;11.33;;;10.33;;
12222;SDS011;6174;49.058;8.524;2023-11-21T09:33:00;11.03;;;9.93;;
12222;SDS011;6174;49.058;8.524;2023-11-21T09:35:27;11.03;;;10.00;;
12222;SDS011;6174;49.058;8.524;2023-11-21T09:37:53;10.93;;;9.90;;
12222;SDS011;6174;49.058;8.524;2023-11-21T09:40:21;11.13;;;10.17;;
12222;SDS011;6174;49.058;8.524;2023-11-21T09:42:49;10.47;;;9.53;;
12222;SDS011;6174;49.058;8.524;2023-11-21T09:45:24;10.97;;;9.90;;
12222;SDS011;6174;49.058;8.524;2023-11-21T09:47:52;10.33;;;9.43;;
12222;SDS011;6174;49.058;8.524;2023-11-21T09:50:20;10.97;;;9.97;;
12222;SDS011;6174;49.058;8.524;2023-11-21T09:52:54;10.10;;;9.20;;
12222;SDS011;6174;49.058;8.524;2023-11-21T09:55:26;10.93;;;9.93;;
12222;SDS011;6174;49.058;8.524;2023-11-21T09:57:55;11.50;;;10.40;;
12222;SDS011;6174;49.058;8.524;2023-11-21T10:00:24;10.07;;;9.07;;
12222;SDS011;6174;49.058;8.524;2023-11-21T10:02:54;10.53;;;9.63;;
12222;SDS011;6174;49.058;8.524;2023-11-21T10:05:24;10.37;;;9.47;;
12222;SDS011;6174;49.058;8.524;2023-11-21T10:07:51;10.03;;;9.13;;
12222;SDS011;6174;49.058;8.524;2023-11-21T10:10:19;11.33;;;10.33;;
12222;SDS011;6174;49.058;8.524;2023-11-21T10:12:49;10.93;;;9.93;;
12222;SDS011;6174;49.058;8.524;2023-11-21T10:15:18;10.90;;;9.90;;
12222;SDS011;6174;49.058;8.524;2023-11-21T10:17:49;10.20;;;9.30;;
12222;SDS011;6174;49.058;8.524;2023-11-21T10:20:18;9.93;;;8.93;;
12222;SDS011;6174;49.058;8.524;2023-11-21T10:22:46;9.80;;;8.90;;
12222;SDS011;6174;49.058;8.524;2023-11-21T10:25:12;10.57;;;9.53;;
12222;SDS011;6174;49.058;8.524;2023-11-21T10:27:40;9.53;;;8.63;;
12222;SDS011;6174;49.058;8.524;2023-11-21T10:30:08;10.87;;;9.87;;
12222;SDS011;6174;49.058;8.524;2023-11-21T10:32:37;10.27;;;9.37;;
12222;SDS011;6174;49.058;8.524;2023-11-21T10:35:07;8.83;;;8.13;;
12222;SDS011;6174;49.058;8.524;2023-11-21T10:37:36;10.00;;;9.00;;
12222;SDS011;6174;49.058;8.524;2023-11-21T10:40:05;9.27;;;8.47;;
12222;SDS011;6174;49.058;8.524;2023-11-21T10:42:34;9.10;;;8.30;;
12222;SDS011;6174;49.058;8.524;2023-11-21T10:45:04;8.70;;;7.90;;
12222;SDS011;6174;49.058;8.524;2023-11-21T10:47:37;8.40;;;7.70;;
12222;SDS011;6174;49.058;8.524;2023-11-21T10:50:05;8.00;;;7.30;;
12222;SDS011;6174;49.058;8.524;2023-11-21T10:52:36;8.23;;;7.53;;
12222;SDS011;6174;49.058;8.524;2023-11-21T10:55:05;7.23;;;6.53;;
12222;SDS011;6174;49.058;8.524;2023-11-21T10:57:42;6.40;;;5.90;;
12222;SDS011;6174;49.058;8.524;2023-11-21T11:00:11;7.00;;;6.40;;
12222;SDS011;6174;49.058;8.524;2023-11-21T11:02:39;6.80;;;6.20;;
12222;SDS011;6174;49.058;8.524;2023-11-21T11:05:07;6.43;;;5.83;;
12222;SDS011;6174;49.058;8.524;2023-11-21T11:07:36;5.97;;;5.47;;
12222;SDS011;6174;49.058;8.524;2023-11-21T11:10:07;5.93;;;5.43;;
12222;SDS011;6174;49.058;8.524;2023-11-21T11:12:39;6.20;;;5.70;;
12222;SDS011;6174;49.058;8.524;2023-11-21T11:15:07;6.00;;;5.60;;
12222;SDS011;6174;49.058;8.524;2023-11-21T11:17:35;5.77;;;5.27;;
12222;SDS011;6174;49.058;8.524;2023-11-21T11:20:04;5.97;;;5.50;;
12222;SDS011;6174;49.058;8.524;2023-11-21T11:22:37;6.13;;;5.53;;
12222;SDS011;6174;49.058;8.524;2023-11-21T11:25:14;5.90;;;5.40;;
12222;SDS011;6174;49.058;8.524;2023-11-21T11:28:02;7.07;;;6.47;;
12222;SDS011;6174;49.058;8.524;2023-11-21T11:30:37;6.20;;;5.70;;
12222;SDS011;6174;49.058;8.524;2023-11-21T11:33:11;5.27;;;4.87;;
12222;SDS011;6174;49.058;8.524;2023-11-21T11:35:51;4.50;;;4.20;;
12222;SDS011;6174;49.058;8.524;2023-11-21T11:38:24;4.23;;;3.93;;
12222;SDS011;6174;49.058;8.524;2023-11-21T11:40:57;4.20;;;3.80;;
12222;SDS011;6174;49.058;8.524;2023-11-21T11:43:28;5.37;;;4.87;;
12222;SDS011;6174;49.058;8.524;2023-11-21T11:45:55;5.07;;;4.67;;
12222;SDS011;6174;49.058;8.524;2023-11-21T11:48:24;4.23;;;3.93;;
12222;SDS011;6174;49.058;8.524;2023-11-21T11:51:01;3.83;;;3.60;;
12222;SDS011;6174;49.058;8.524;2023-11-21T11:53:35;3.80;;;3.50;;
12222;SDS011;6174;49.058;8.524;2023-11-21T11:56:25;4.10;;;3.80;;
12222;SDS011;6174;49.058;8.524;2023-11-21T11:58:53;4.20;;;3.80;;
12222;SDS011;6174;49.058;8.524;2023-11-21T12:01:22;4.20;;;3.90;;
12222;SDS011;6174;49.058;8.524;2023-11-21T12:06:59;4.30;;;3.90;;
12222;SDS011;6174;49.058;8.524;2023-11-21T12:09:30;3.57;;;3.27;;
12222;SDS011;6174;49.058;8.524;2023-11-21T12:11:57;3.47;;;3.27;;
12222;SDS011;6174;49.058;8.524;2023-11-21T12:14:25;3.80;;;3.50;;
12222;SDS011;6174;49.058;8.524;2023-11-21T12:16:54;3.73;;;3.43;;
12222;SDS011;6174;49.058;8.524;2023-11-21T12:19:21;3.87;;;3.57;;
12222;SDS011;6174;49.058;8.524;2023-11-21T12:21:48;4.37;;;3.97;;
12222;SDS011;6174;49.058;8.524;2023-11-21T12:24:16;4.53;;;4.13;;
12222;SDS011;6174;49.058;8.524;2023-11-21T12:26:44;4.40;;;4.00;;
12222;SDS011;6174;49.058;8.524;2023-11-21T12:29:11;4.70;;;4.30;;
12222;SDS011;6174;49.058;8.524;2023-11-21T12:31:37;5.23;;;4.83;;
12222;SDS011;6174;49.058;8.524;2023-11-21T12:34:05;5.50;;;5.10;;
12222;SDS011;6174;49.058;8.524;2023-11-21T12:36:32;5.80;;;5.20;;
12222;SDS011;6174;49.058;8.524;2023-11-21T12:38:59;6.40;;;5.90;;
12222;SDS011;6174;49.058;8.524;2023-11-21T12:41:30;5.47;;;4.97;;
12222;SDS011;6174;49.058;8.524;2023-11-21T12:43:58;6.10;;;5.60;;
12222;SDS011;6174;49.058;8.524;2023-11-21T12:46:25;6.33;;;5.83;;
12222;SDS011;6174;49.058;8.524;2023-11-21T12:48:55;6.50;;;5.90;;
12222;SDS011;6174;49.058;8.524;2023-11-21T12:51:25;7.03;;;6.43;;
12222;SDS011;6174;49.058;8.524;2023-11-21T12:53:52;7.50;;;6.70;;
12222;SDS011;6174;49.058;8.524;2023-11-21T12:56:19;6.53;;;6.00;;
12222;SDS011;6174;49.058;8.524;2023-11-21T12:58:49;6.93;;;6.33;;
12222;SDS011;6174;49.058;8.524;2023-11-21T13:01:18;6.80;;;6.20;;
12222;SDS011;6174;49.058;8.524;2023-11-21T13:03:48;6.73;;;6.13;;
12222;SDS011;6174;49.058;8.524;2023-11-21T13:06:17;5.93;;;5.43;;
12222;SDS011;6174;49.058;8.524;2023-11-21T13:08:44;5.50;;;5.00;;
12222;SDS011;6174;49.058;8.524;2023-11-21T13:11:11;5.30;;;4.80;;
12222;SDS011;6174;49.058;8.524;2023-11-21T13:13:40;6.00;;;4.90;;
12222;SDS011;6174;49.058;8.524;2023-11-21T13:16:08;4.67;;;4.30;;
12222;SDS011;6174;49.058;8.524;2023-11-21T13:18:37;4.87;;;4.47;;
12222;SDS011;6174;49.058;8.524;2023-11-21T13:21:05;6.57;;;6.17;;
12222;SDS011;6174;49.058;8.524;2023-11-21T13:23:37;5.70;;;5.30;;
12222;SDS011;6174;49.058;8.524;2023-11-21T13:26:06;5.83;;;5.03;;
12222;SDS011;6174;49.058;8.524;2023-11-21T13:28:33;4.60;;;4.20;;
12222;SDS011;6174;49.058;8.524;2023-11-21T13:31:03;4.13;;;3.83;;
12222;SDS011;6174;49.058;8.524;2023-11-21T13:33:46;4.60;;;4.20;;
12222;SDS011;6174;49.058;8.524;2023-11-21T13:36:20;5.57;;;4.30;;
12222;SDS011;6174;49.058;8.524;2023-11-21T13:38:49;4.73;;;3.73;;
12222;SDS011;6174;49.058;8.524;2023-11-21T13:41:17;4.20;;;3.80;;
12222;SDS011;6174;49.058;8.524;2023-11-21T13:43:44;3.17;;;2.97;;
12222;SDS011;6174;49.058;8.524;2023-11-21T13:46:17;3.30;;;3.00;;
12222;SDS011;6174;49.058;8.524;2023-11-21T13:48:48;7.30;;;6.70;;
12222;SDS011;6174;49.058;8.524;2023-11-21T13:51:20;5.97;;;5.37;;
12222;SDS011;6174;49.058;8.524;2023-11-21T13:53:55;7.27;;;6.67;;
12222;SDS011;6174;49.058;8.524;2023-11-21T13:56:22;3.60;;;3.30;;
12222;SDS011;6174;49.058;8.524;2023-11-21T13:58:49;3.70;;;3.40;;
12222;SDS011;6174;49.058;8.524;2023-11-21T14:01:16;2.80;;;2.60;;
12222;SDS011;6174;49.058;8.524;2023-11-21T14:04:07;5.63;;;5.13;;
12222;SDS011;6174;49.058;8.524;2023-11-21T14:06:44;3.33;;;3.03;;
12222;SDS011;6174;49.058;8.524;2023-11-21T14:09:14;4.43;;;4.03;;
12222;SDS011;6174;49.058;8.524;2023-11-21T14:11:47;3.20;;;2.90;;
12222;SDS011;6174;49.058;8.524;2023-11-21T14:14:16;3.90;;;3.40;;
12222;SDS011;6174;49.058;8.524;2023-11-21T14:16:43;5.77;;;5.20;;
12222;SDS011;6174;49.058;8.524;2023-11-21T14:19:11;5.00;;;4.20;;
12222;SDS011;6174;49.058;8.524;2023-11-21T14:21:41;3.53;;;3.10;;
12222;SDS011;6174;49.058;8.524;2023-11-21T14:24:09;3.40;;;3.10;;
12222;SDS011;6174;49.058;8.524;2023-11-21T14:26:37;5.13;;;4.00;;
12222;SDS011;6174;49.058;8.524;2023-11-21T14:29:05;4.37;;;3.70;;
12222;SDS011;6174;49.058;8.524;2023-11-21T14:31:33;3.73;;;3.33;;
12222;SDS011;6174;49.058;8.524;2023-11-21T14:34:00;3.93;;;3.63;;
12222;SDS011;6174;49.058;8.524;2023-11-21T14:36:28;4.53;;;4.13;;
12222;SDS011;6174;49.058;8.524;2023-11-21T14:38:55;4.87;;;4.47;;
12222;SDS011;6174;49.058;8.524;2023-11-21T14:41:22;4.60;;;4.17;;
12222;SDS011;6174;49.058;8.524;2023-11-21T14:43:50;3.83;;;3.53;;
12222;SDS011;6174;49.058;8.524;2023-11-21T14:46:18;4.07;;;3.67;;
12222;SDS011;6174;49.058;8.524;2023-11-21T14:48:45;4.23;;;3.30;;
12222;SDS011;6174;49.058;8.524;2023-11-21T14:51:20;3.87;;;3.57;;
12222;SDS011;6174;49.058;8.524;2023-11-21T14:53:57;4.60;;;3.50;;
12222;SDS011;6174;49.058;8.524;2023-11-21T14:56:31;3.80;;;3.50;;
12222;SDS011;6174;49.058;8.524;2023-11-21T14:58:59;3.27;;;2.97;;
12222;SDS011;6174;49.058;8.524;2023-11-21T15:01:30;3.17;;;2.47;;
12222;SDS011;6174;49.058;8.524;2023-11-21T15:04:09;2.70;;;2.50;;
12222;SDS011;6174;49.058;8.524;2023-11-21T15:06:45;3.40;;;2.90;;
12222;SDS011;6174;49.058;8.524;2023-11-21T15:09:14;6.70;;;2.73;;
12222;SDS011;6174;49.058;8.524;2023-11-21T15:12:00;5.03;;;2.47;;
12222;SDS011;6174;49.058;8.524;2023-11-21T15:14:37;3.50;;;3.20;;
12222;SDS011;6174;49.058;8.524;2023-11-21T15:17:04;3.20;;;2.90;;
12222;SDS011;6174;49.058;8.524;2023-11-21T15:19:32;3.07;;;2.53;;
12222;SDS011;6174;49.058;8.524;2023-11-21T15:22:00;4.27;;;2.60;;
12222;SDS011;6174;49.058;8.524;2023-11-21T15:24:28;4.87;;;3.10;;
12222;SDS011;6174;49.058;8.524;2023-11-21T15:26:57;3.50;;;3.10;;
12222;SDS011;6174;49.058;8.524;2023-11-21T15:29:24;3.27;;;2.97;;
12222;SDS011;6174;49.058;8.524;2023-11-21T15:31:51;4.37;;;2.83;;
12222;SDS011;6174;49.058;8.524;2023-11-21T15:34:21;4.60;;;2.90;;
12222;SDS011;6174;49.058;8.524;2023-11-21T15:36:50;3.93;;;3.07;;
12222;SDS011;6174;49.058;8.524;2023-11-21T15:39:19;3.50;;;2.70;;
12222;SDS011;6174;49.058;8.524;2023-11-21T15:41:50;5.17;;;3.13;;
12222;SDS011;6174;49.058;8.524;2023-11-21T15:44:17;4.53;;;3.13;;
12222;SDS011;6174;49.058;8.524;2023-11-21T15:46:43;3.93;;;3.47;;
12222;SDS011;6174;49.058;8.524;2023-11-21T15:49:10;4.63;;;3.83;;
12222;SDS011;6174;49.058;8.524;2023-11-21T15:51:39;5.80;;;5.30;;
12222;SDS011;6174;49.058;8.524;2023-11-21T15:54:06;5.33;;;4.67;;
12222;SDS011;6174;49.058;8.524;2023-11-21T15:56:33;3.50;;;3.20;;
12222;SDS011;6174;49.058;8.524;2023-11-21T15:59:02;5.60;;;4.20;;
12222;SDS011;6174;49.058;8.524;2023-11-21T16:01:29;5.57;;;4.13;;
12222;SDS011;6174;49.058;8.524;2023-11-21T16:03:56;4.97;;;3.90;;
12222;SDS011;6174;49.058;8.524;2023-11-21T16:06:27;5.43;;;3.93;;
12222;SDS011;6174;49.058;8.524;2023-11-21T16:08:55;6.50;;;4.23;;
12222;SDS011;6174;49.058;8.524;2023-11-21T16:11:23;6.03;;;4.57;;
12222;SDS011;6174;49.058;8.524;2023-11-21T16:13:51;5.20;;;4.07;;
12222;SDS011;6174;49.058;8.524;2023-11-21T16:16:23;5.47;;;3.73;;
12222;SDS011;6174;49.058;8.524;2023-11-21T16:18:51;4.60;;;3.60;;
12222;SDS011;6174;49.058;8.524;2023-11-21T16:21:18;4.97;;;4.20;;
12222;SDS011;6174;49.058;8.524;2023-11-21T16:23:46;4.03;;;3.63;;
12222;SDS011;6174;49.058;8.524;2023-11-21T16:26:13;4.67;;;3.77;;
12222;SDS011;6174;49.058;8.524;2023-11-21T16:28:43;5.23;;;3.83;;
12222;SDS011;6174;49.058;8.524;2023-11-21T16:31:10;8.40;;;4.70;;
12222;SDS011;6174;49.058;8.524;2023-11-21T16:33:39;6.73;;;4.23;;
12222;SDS011;6174;49.058;8.524;2023-11-21T16:36:06;4.37;;;3.60;;
12222;SDS011;6174;49.058;8.524;2023-11-21T16:38:34;4.20;;;3.80;;
12222;SDS011;6174;49.058;8.524;2023-11-21T16:41:01;4.57;;;3.73;;
12222;SDS011;6174;49.058;8.524;2023-11-21T16:43:28;3.80;;;3.40;;
12222;SDS011;6174;49.058;8.524;2023-11-21T16:45:55;4.00;;;3.70;;
12222;SDS011;6174;49.058;8.524;2023-11-21T16:48:22;4.23;;;3.70;;
12222;SDS011;6174;49.058;8.524;2023-11-21T16:50:51;4.20;;;3.57;;
12222;SDS011;6174;49.058;8.524;2023-11-21T16:53:18;6.13;;;4.07;;
12222;SDS011;6174;49.058;8.524;2023-11-21T16:55:45;4.93;;;4.07;;
12222;SDS011;6174;49.058;8.524;2023-11-21T16:58:12;5.70;;;4.50;;
12222;SDS011;6174;49.058;8.524;2023-11-21T17:00:41;5.27;;;4.53;;
12222;SDS011;6174;49.058;8.524;2023-11-21T17:03:08;5.40;;;4.10;;
12222;SDS011;6174;49.058;8.524;2023-11-21T17:05:35;5.77;;;4.20;;
12222;SDS011;6174;49.058;8.524;2023-11-21T17:08:05;4.80;;;4.00;;
12222;SDS011;6174;49.058;8.524;2023-11-21T17:10:36;4.60;;;3.90;;
12222;SDS011;6174;49.058;8.524;2023-11-21T17:13:04;4.50;;;3.50;;
12222;SDS011;6174;49.058;8.524;2023-11-21T17:15:31;5.60;;;3.77;;
12222;SDS011;6174;49.058;8.524;2023-11-21T17:17:59;4.30;;;3.90;;
12222;SDS011;6174;49.058;8.524;2023-11-21T17:20:28;4.20;;;3.80;;
12222;SDS011;6174;49.058;8.524;2023-11-21T17:23:02;3.90;;;3.60;;
12222;SDS011;6174;49.058;8.524;2023-11-21T17:25:35;4.20;;;3.80;;
12222;SDS011;6174;49.058;8.524;2023-11-21T17:28:03;5.53;;;5.13;;
12222;SDS011;6174;49.058;8.524;2023-11-21T17:30:31;6.27;;;5.17;;
12222;SDS011;6174;49.058;8.524;2023-11-21T17:32:59;5.20;;;4.70;;
12222;SDS011;6174;49.058;8.524;2023-11-21T17:35:28;5.07;;;4.60;;
12222;SDS011;6174;49.058;8.524;2023-11-21T17:37:57;5.47;;;4.90;;
12222;SDS011;6174;49.058;8.524;2023-11-21T17:40:27;4.37;;;3.97;;
12222;SDS011;6174;49.058;8.524;2023-11-21T17:42:57;4.80;;;3.97;;
12222;SDS011;6174;49.058;8.524;2023-11-21T17:45:28;4.77;;;4.37;;
12222;SDS011;6174;49.058;8.524;2023-11-21T17:47:56;5.00;;;4.50;;
12222;SDS011;6174;49.058;8.524;2023-11-21T17:50:25;5.00;;;4.13;;
12222;SDS011;6174;49.058;8.524;2023-11-21T17:52:53;5.57;;;4.70;;
12222;SDS011;6174;49.058;8.524;2023-11-21T17:55:20;5.87;;;4.60;;
12222;SDS011;6174;49.058;8.524;2023-11-21T17:57:49;5.87;;;5.30;;
12222;SDS011;6174;49.058;8.524;2023-11-21T18:00:20;5.97;;;5.40;;
12222;SDS011;6174;49.058;8.524;2023-11-21T18:02:49;6.57;;;5.10;;
12222;SDS011;6174;49.058;8.524;2023-11-21T18:05:17;5.47;;;4.97;;
12222;SDS011;6174;49.058;8.524;2023-11-21T18:07:49;5.93;;;5.30;;
12222;SDS011;6174;49.058;8.524;2023-11-21T18:10:17;6.90;;;5.23;;
12222;SDS011;6174;49.058;8.524;2023-11-21T18:12:45;5.80;;;5.20;;
12222;SDS011;6174;49.058;8.524;2023-11-21T18:15:13;7.27;;;4.97;;
12222;SDS011;6174;49.058;8.524;2023-11-21T18:17:44;6.40;;;5.70;;
12222;SDS011;6174;49.058;8.524;2023-11-21T18:20:12;9.07;;;5.80;;
12222;SDS011;6174;49.058;8.524;2023-11-21T18:22:40;8.07;;;5.47;;
12222;SDS011;6174;49.058;8.524;2023-11-21T18:25:07;7.40;;;5.60;;
12222;SDS011;6174;49.058;8.524;2023-11-21T18:27:34;6.60;;;5.80;;
12222;SDS011;6174;49.058;8.524;2023-11-21T18:30:02;8.53;;;6.03;;
12222;SDS011;6174;49.058;8.524;2023-11-21T18:32:40;8.97;;;5.83;;
12222;SDS011;6174;49.058;8.524;2023-11-21T18:35:09;7.33;;;6.27;;
12222;SDS011;6174;49.058;8.524;2023-11-21T18:37:36;7.10;;;6.50;;
12222;SDS011;6174;49.058;8.524;2023-11-21T18:40:04;7.80;;;7.10;;
12222;SDS011;6174;49.058;8.524;2023-11-21T18:42:34;11.60;;;9.60;;
12222;SDS011;6174;49.058;8.524;2023-11-21T18:45:02;12.17;;;10.80;;
12222;SDS011;6174;49.058;8.524;2023-11-21T18:47:32;6.77;;;6.03;;
12222;SDS011;6174;49.058;8.524;2023-11-21T18:53:34;10.37;;;7.20;;
12222;SDS011;6174;49.058;8.524;2023-11-21T18:56:07;10.63;;;8.30;;
12222;SDS011;6174;49.058;8.524;2023-11-21T19:05:54;8.87;;;6.17;;
12222;SDS011;6174;49.058;8.524;2023-11-21T19:20:23;7.37;;;6.40;;
12222;SDS011;6174;49.058;8.524;2023-11-21T19:22:50;7.77;;;6.63;;
12222;SDS011;6174;49.058;8.524;2023-11-21T19:25:17;9.53;;;6.20;;
12222;SDS011;6174;49.058;8.524;2023-11-21T19:27:44;8.00;;;6.90;;
12222;SDS011;6174;49.058;8.524;2023-11-21T19:30:13;9.30;;;6.80;;
12222;SDS011;6174;49.058;8.524;2023-11-21T19:32:40;9.27;;;7.07;;
12222;SDS011;6174;49.058;8.524;2023-11-21T19:35:08;7.80;;;6.70;;
12222;SDS011;6174;49.058;8.524;2023-11-21T19:37:36;8.00;;;7.20;;
12222;SDS011;6174;49.058;8.524;2023-11-21T19:40:04;10.23;;;9.03;;
12222;SDS011;6174;49.058;8.524;2023-11-21T19:42:31;12.07;;;10.00;;
12222;SDS011;6174;49.058;8.524;2023-11-21T19:44:59;15.30;;;13.70;;
12222;SDS011;6174;49.058;8.524;2023-11-21T19:47:26;12.50;;;11.03;;
12222;SDS011;6174;49.058;8.524;2023-11-21T19:49:53;9.70;;;8.70;;
12222;SDS011;6174;49.058;8.524;2023-11-21T19:52:20;10.00;;;9.00;;
12222;SDS011;6174;49.058;8.524;2023-11-21T19:54:49;9.77;;;8.77;;
12222;SDS011;6174;49.058;8.524;2023-11-21T19:57:16;10.00;;;9.00;;
12222;SDS011;6174;49.058;8.524;2023-11-21T19:59:42;10.93;;;9.83;;
12222;SDS011;6174;49.058;8.524;2023-11-21T20:02:10;13.00;;;10.17;;
12222;SDS011;6174;49.058;8.524;2023-11-21T20:04:37;11.17;;;10.07;;
12222;SDS011;6174;49.058;8.524;2023-11-21T20:07:07;10.73;;;9.63;;
12222;SDS011;6174;49.058;8.524;2023-11-21T20:09:34;13.37;;;11.83;;
12222;SDS011;6174;49.058;8.524;2023-11-21T20:12:04;11.23;;;9.90;;
12222;SDS011;6174;49.058;8.524;2023-11-21T20:14:31;12.17;;;10.97;;
12222;SDS011;6174;49.058;8.524;2023-11-21T20:16:59;12.27;;;10.97;;
12222;SDS011;6174;49.058;8.524;2023-11-21T20:19:27;11.57;;;10.47;;
12222;SDS011;6174;49.058;8.524;2023-11-21T20:21:55;12.80;;;11.40;;
12222;SDS011;6174;49.058;8.524;2023-11-21T20:24:22;15.93;;;14.03;;
12222;SDS011;6174;49.058;8.524;2023-11-21T20:26:49;16.77;;;14.13;;
12222;SDS011;6174;49.058;8.524;2023-11-21T20:29:17;14.53;;;12.90;;
12222;SDS011;6174;49.058;8.524;2023-11-21T20:31:44;14.83;;;13.43;;
12222;SDS011;6174;49.058;8.524;2023-11-21T20:34:11;14.03;;;12.73;;
12222;SDS011;6174;49.058;8.524;2023-11-21T20:36:38;13.90;;;12.40;;
12222;SDS011;6174;49.058;8.524;2023-11-21T20:39:05;13.73;;;12.33;;
12222;SDS011;6174;49.058;8.524;2023-11-21T20:41:32;15.87;;;11.87;;
12222;SDS011;6174;49.058;8.524;2023-11-21T20:43:59;14.00;;;12.33;;
12222;SDS011;6174;49.058;8.524;2023-11-21T20:46:28;13.73;;;12.33;;
12222;SDS011;6174;49.058;8.524;2023-11-21T20:48:54;15.60;;;12.93;;
12222;SDS011;6174;49.058;8.524;2023-11-21T20:51:23;15.90;;;14.07;;
12222;SDS011;6174;49.058;8.524;2023-11-21T20:53:50;16.13;;;14.43;;
12222;SDS011;6174;49.058;8.524;2023-11-21T20:56:17;16.77;;;13.97;;
12222;SDS011;6174;49.058;8.524;2023-11-21T20:58:44;12.97;;;11.57;;
12222;SDS011;6174;49.058;8.524;2023-11-21T21:01:11;12.57;;;11.27;;
12222;SDS011;6174;49.058;8.524;2023-11-21T21:03:40;10.70;;;9.60;;
12222;SDS011;6174;49.058;8.524;2023-11-21T21:06:08;10.60;;;9.50;;
12222;SDS011;6174;49.058;8.524;2023-11-21T21:08:35;10.30;;;9.30;;
12222;SDS011;6174;49.058;8.524;2023-11-21T21:11:02;10.73;;;9.63;;
12222;SDS011;6174;49.058;8.524;2023-11-21T21:13:32;10.03;;;8.63;;
12222;SDS011;6174;49.058;8.524;2023-11-21T21:15:59;12.17;;;9.70;;
12222;SDS011;6174;49.058;8.524;2023-11-21T21:18:25;10.93;;;9.70;;
12222;SDS011;6174;49.058;8.524;2023-11-21T21:20:55;11.17;;;10.07;;
12222;SDS011;6174;49.058;8.524;2023-11-21T21:23:23;11.67;;;10.43;;
12222;SDS011;6174;49.058;8.524;2023-11-21T21:25:50;11.47;;;10.27;;
12222;SDS011;6174;49.058;8.524;2023-11-21T21:28:18;11.17;;;10.00;;
12222;SDS011;6174;49.058;8.524;2023-11-21T21:30:45;11.03;;;9.93;;
12222;SDS011;6174;49.058;8.524;2023-11-21T21:33:12;11.30;;;10.27;;